Terminal Aerodrome Forecast
Issued by NWS La Crosse, WI

Home | Current Version | Previous Version | Text Only | Print | Product List | Glossary On
Versions: 1 2 3 4 5 6 7 8 9 10 11 12 13 14 15 16 17 18 19 20 21 22 23 24 25 26 27 28 29 30 31 32 33 34
000
FTUS43 KARX 281120
TAFRST
TAF
KRST 281120Z 2812/2912 34010KT P6SM OVC008
     FM281700 36013KT P6SM VCSH BKN015
     FM282300 36010KT P6SM BKN035
     FM290200 01008KT P6SM SCT040=

USA.gov is the U.S. government's official web portal to all federal, state and local government web resources and services.